Kinsley Ranch, Arizona
Current Conditions -  °F | °C
As of 7:54 PM on Friday 19 Dec 2014 (Local Time) from KOLS Reporting Station
Clear Clear  
Wind Chill: 43°   Ceiling: Unl
Heat Index: 48°   Visibility: 10mi
Dew Point: 30°   Wind: 12mph
Humidity: 50%   Direction: 30°NNE
Pressure: 30.13"   Gusts: NA
Location:  31.6134°N, 110.959°W
Report Text: KOLS 200254Z AUTO 03010KT 10SM CLR 09/M01 A3013 RMK AO2 SLP190 T00891011 50010
Loading
Personal Weather Stations






























Interactive Weather Map New forecast layout! Learn more

10-Day Weather Forecast

Advertisements
Track Severe Weather on mobile